Portada
METAR-TAF:

METAR-TAF

Aeroports :

Kingston, Jamaica

latitud: 17-56N, longitud: 076-47W, altitud: 3 m

Observació

L'informe es va fer fa 57 minuts, a les 19:00 UTC
Vent 24 kt del Sud-Est
Temperatura 30°C
Humitat 70%
Pressió 1013 hPa
Visibilitat 10 km o més
Escasses núvols a una alçada de 2200 ft, Cumulonimbus.

METAR: MKJP 201900Z 14024KT 9999 FEW022CB 30/24 Q1013

Hora: 14:57 (19:57 UTC)

Pronòstic

L'informe es va fer fa 2 hores i 42 minuts, a les 17:15 UTC
Pronòstic vàlid del 20 a les 18 UTC al 21 a les 18 UTC
Vent 24 kt del Sud-Est amb ràfegues de 34 kt
Visibilitat 10 km o més
Escasses núvols a una alçada de 2200 ft
Escasses núvols a una alçada de 2400 ft, Cumulonimbus.
Evolucionant progressivament
l' 21 a les 06 UTC al 21 a les 08 UTC
Vent 7 kt del Nord
Evolucionant progressivament
l' 21 a les 14 UTC al 21 a les 16 UTC
Vent 22 kt del Sud-Est

TAF: MKJP 201715Z 2018/2118 14024G34KT 9999 FEW022 FEW024CB BECMG 2106/2108 36007KT BECMG 2114/2116 14022KT

Observacions i pronòstics meteorològics de més de 4000 aeroports (METAR i TAF).

Les estacions disponibles són els punts grocs i vermells al mapa.

Posi el ratolí al punt desitjat per veure el nom de l'estació.

Feu clic per veure les observacions i els pronòstics meteorològics.

Per canviar el mapa: feu clic els botons verds amb una creu de color negre per apropar; al botó verd amb un guió per allunyar la imatge; o en les fletxes verdes per a mapes adjacents.


METAR-TAF: